createdAt,value
2018-07-20T00:02:20.187Z,99816.00
2018-07-20T00:04:49.256Z,99811.00
2018-07-20T00:07:18.345Z,99805.00
2018-07-20T00:09:47.605Z,99803.00
2018-07-20T00:12:16.712Z,99803.00
2018-07-20T00:14:45.902Z,99806.00
2018-07-20T00:17:15.008Z,99806.00
2018-07-20T00:19:44.191Z,99800.00
2018-07-20T00:22:13.395Z,99795.00
2018-07-20T00:24:42.457Z,99795.00
2018-07-20T00:27:11.582Z,99800.00
2018-07-20T00:29:40.805Z,99794.00
2018-07-20T00:32:09.945Z,99796.00
2018-07-20T00:34:39.035Z,99794.00
2018-07-20T00:37:08.175Z,99792.00
2018-07-20T00:39:37.273Z,99793.00
2018-07-20T00:42:06.375Z,99788.00
2018-07-20T00:44:35.444Z,99786.00
2018-07-20T00:47:04.582Z,99779.00
2018-07-20T00:49:33.759Z,99774.00
2018-07-20T00:52:02.856Z,99775.00
2018-07-20T00:54:31.955Z,99771.00
2018-07-20T00:57:01.045Z,99765.00
2018-07-20T00:59:30.171Z,99766.00
2018-07-20T01:01:59.345Z,99766.00
2018-07-20T01:04:28.461Z,99770.00
2018-07-20T01:06:57.613Z,99775.00
2018-07-20T01:09:26.764Z,99768.00
2018-07-20T01:11:55.842Z,99764.00
2018-07-20T01:14:24.945Z,99764.00
2018-07-20T01:16:54.044Z,99759.00
2018-07-20T01:19:23.238Z,99760.00
2018-07-20T01:21:52.125Z,99758.00
2018-07-20T01:24:21.203Z,99762.00
2018-07-20T01:26:50.649Z,99757.00
2018-07-20T01:29:19.784Z,99753.00
2018-07-20T01:31:48.868Z,99750.00
2018-07-20T01:34:17.964Z,99746.00
2018-07-20T01:36:47.100Z,99747.00
2018-07-20T01:39:16.190Z,99747.00
2018-07-20T01:41:45.276Z,99750.00
2018-07-20T01:44:14.372Z,99746.00
2018-07-20T01:46:43.467Z,99746.00
2018-07-20T01:49:12.569Z,99741.00
2018-07-20T01:51:41.445Z,99741.00
2018-07-20T01:54:10.592Z,99735.00
2018-07-20T01:56:39.756Z,99739.00
2018-07-20T01:59:08.902Z,99738.00
2018-07-20T02:01:38.055Z,99740.00
2018-07-20T02:04:07.636Z,99739.00
2018-07-20T02:06:36.702Z,99736.00
2018-07-20T02:09:09.160Z,99731.00
2018-07-20T02:11:38.274Z,99726.00
2018-07-20T02:14:07.666Z,99729.00
2018-07-20T02:16:36.747Z,99731.00
2018-07-20T02:19:05.848Z,99732.00
2018-07-20T02:21:34.986Z,99728.00
2018-07-20T02:24:04.009Z,99730.00
2018-07-20T02:26:33.301Z,99726.00
2018-07-20T02:29:02.748Z,99724.00
2018-07-20T02:31:31.833Z,99726.00
2018-07-20T02:34:00.947Z,99725.00
2018-07-20T02:36:30.060Z,99726.00
2018-07-20T02:38:59.206Z,99736.00
2018-07-20T02:41:28.388Z,99738.00
2018-07-20T02:43:57.560Z,99734.00
2018-07-20T02:46:26.699Z,99737.00
2018-07-20T02:48:55.858Z,99733.00
2018-07-20T02:51:25.052Z,99730.00
2018-07-20T02:53:54.178Z,99735.00
2018-07-20T02:56:23.415Z,99729.00
2018-07-20T02:58:52.658Z,99737.00
2018-07-20T03:01:21.867Z,99737.00
2018-07-20T03:03:51.032Z,99734.00
2018-07-20T03:06:20.212Z,99736.00
2018-07-20T03:08:49.335Z,99734.00
2018-07-20T03:11:19.324Z,99731.00
2018-07-20T03:13:48.528Z,99729.00
2018-07-20T03:16:17.759Z,99729.00
2018-07-20T03:18:46.869Z,99727.00
2018-07-20T03:21:16.033Z,99730.00
2018-07-20T03:23:45.289Z,99717.00
2018-07-20T03:26:14.457Z,99711.00
2018-07-20T03:28:43.783Z,99708.00
2018-07-20T03:31:13.016Z,99713.00
2018-07-20T03:33:42.208Z,99709.00
2018-07-20T03:36:11.433Z,99713.00
2018-07-20T03:38:40.611Z,99707.00
2018-07-20T03:41:09.835Z,99700.00
2018-07-20T03:43:39.098Z,99697.00
2018-07-20T03:46:08.276Z,99694.00
2018-07-20T03:48:37.435Z,99689.00
2018-07-20T03:51:06.837Z,99694.00
2018-07-20T03:53:36.084Z,99691.00
2018-07-20T03:56:05.241Z,99689.00
2018-07-20T03:58:34.395Z,99685.00
2018-07-20T04:01:03.251Z,99688.00
2018-07-20T04:03:32.354Z,99685.00
2018-07-20T04:06:01.524Z,99684.00
2018-07-20T04:08:30.592Z,99688.00
2018-07-20T04:11:02.815Z,99682.00
2018-07-20T04:13:31.964Z,99680.00
2018-07-20T04:16:01.059Z,99682.00
2018-07-20T04:18:30.195Z,99679.00
2018-07-20T04:20:59.472Z,99670.00
2018-07-20T04:23:28.627Z,99674.00
2018-07-20T04:25:57.742Z,99675.00
2018-07-20T04:28:26.872Z,99670.00
2018-07-20T04:30:56.036Z,99669.00
2018-07-20T04:33:25.184Z,99670.00
2018-07-20T04:35:54.320Z,99669.00
2018-07-20T04:38:23.456Z,99668.00
2018-07-20T04:40:52.641Z,99663.00
2018-07-20T04:43:21.777Z,99668.00
2018-07-20T04:45:50.904Z,99666.00
2018-07-20T04:48:20.012Z,99665.00
2018-07-20T04:50:49.159Z,99663.00
2018-07-20T04:53:18.297Z,99663.00
2018-07-20T04:55:47.388Z,99663.00
2018-07-20T04:58:16.508Z,99672.00
2018-07-20T05:00:45.663Z,99669.00
2018-07-20T05:03:14.831Z,99670.00
2018-07-20T05:05:43.994Z,99669.00
2018-07-20T05:08:13.180Z,99668.00
2018-07-20T05:10:42.532Z,99667.00
2018-07-20T05:13:11.729Z,99665.00
2018-07-20T05:15:40.948Z,99667.00
2018-07-20T05:18:10.193Z,99667.00
2018-07-20T05:20:39.430Z,99667.00
2018-07-20T05:23:08.538Z,99657.00
2018-07-20T05:25:37.856Z,99652.00
2018-07-20T05:28:08.106Z,99650.00
2018-07-20T05:30:37.909Z,99656.00
2018-07-20T05:33:08.937Z,99649.00
2018-07-20T05:35:38.340Z,99650.00
2018-07-20T05:38:07.703Z,99653.00
2018-07-20T05:40:36.769Z,99651.00
2018-07-20T05:43:05.872Z,99654.00
2018-07-20T05:45:34.988Z,99654.00
2018-07-20T05:48:04.115Z,99655.00
2018-07-20T05:50:33.229Z,99654.00
2018-07-20T05:53:02.379Z,99649.00
2018-07-20T05:55:31.495Z,99649.00
2018-07-20T05:58:00.571Z,99646.00
2018-07-20T06:00:30.047Z,99646.00
2018-07-20T06:02:59.100Z,99647.00
2018-07-20T06:05:28.257Z,99648.00
2018-07-20T06:07:57.412Z,99638.00
2018-07-20T06:10:26.502Z,99639.00
2018-07-20T06:12:55.692Z,99635.00
2018-07-20T06:15:25.183Z,99639.00
2018-07-20T06:17:54.315Z,99638.00
2018-07-20T06:20:23.427Z,99638.00
2018-07-20T06:22:52.641Z,99640.00
2018-07-20T06:25:22.666Z,99634.00
2018-07-20T06:27:52.047Z,99637.00
2018-07-20T06:30:20.890Z,99636.00
2018-07-20T06:32:50.040Z,99636.00
2018-07-20T06:35:19.121Z,99634.00
2018-07-20T06:37:48.221Z,99636.00
2018-07-20T06:40:17.367Z,99632.00
2018-07-20T06:42:46.532Z,99640.00
2018-07-20T06:45:16.657Z,99638.00
2018-07-20T06:47:46.032Z,99637.00
2018-07-20T06:50:18.293Z,99642.00
2018-07-20T06:52:48.588Z,99646.00
2018-07-20T06:55:17.823Z,99646.00
2018-07-20T06:57:47.041Z,99645.00
2018-07-20T07:00:16.259Z,99649.00
2018-07-20T07:02:45.465Z,99651.00
2018-07-20T07:05:14.561Z,99654.00
2018-07-20T07:07:43.788Z,99653.00
2018-07-20T07:10:13.052Z,99651.00
2018-07-20T07:12:42.918Z,99654.00
2018-07-20T07:15:12.314Z,99650.00
2018-07-20T07:17:41.513Z,99656.00
2018-07-20T07:20:10.752Z,99647.00
2018-07-20T07:22:40.073Z,99644.00
2018-07-20T07:25:09.506Z,99646.00
2018-07-20T07:27:39.132Z,99649.00
2018-07-20T07:30:08.421Z,99645.00
2018-07-20T07:32:37.836Z,99648.00
2018-07-20T07:35:07.420Z,99642.00
2018-07-20T07:37:36.863Z,99642.00
2018-07-20T07:40:06.011Z,99642.00
2018-07-20T07:42:35.119Z,99644.00
2018-07-20T07:45:04.792Z,99642.00
2018-07-20T07:47:33.921Z,99634.00
2018-07-20T07:50:03.396Z,99640.00
2018-07-20T07:52:32.589Z,99635.00
2018-07-20T07:55:02.013Z,99637.00
2018-07-20T07:57:31.193Z,99640.00
2018-07-20T08:00:00.314Z,99640.00
2018-07-20T08:02:29.525Z,99634.00
2018-07-20T08:04:58.680Z,99634.00
2018-07-20T08:07:27.760Z,99630.00
2018-07-20T08:09:57.077Z,99633.00
2018-07-20T08:12:25.884Z,99628.00
2018-07-20T08:14:55.018Z,99629.00
2018-07-20T08:17:24.129Z,99632.00
2018-07-20T08:19:54.087Z,99633.00
2018-07-20T08:22:23.719Z,99622.00
2018-07-20T08:24:53.315Z,99624.00
2018-07-20T08:27:22.431Z,99622.00
2018-07-20T08:29:51.667Z,99626.00
2018-07-20T08:32:20.802Z,99623.00
2018-07-20T08:34:49.906Z,99627.00
2018-07-20T08:37:19.072Z,99617.00
2018-07-20T08:39:48.137Z,99622.00
2018-07-20T08:42:17.281Z,99621.00
2018-07-20T08:44:46.523Z,99618.00
2018-07-20T08:47:15.768Z,99614.00
2018-07-20T08:49:44.947Z,99618.00
2018-07-20T08:52:14.201Z,99606.00
2018-07-20T08:54:43.265Z,99608.00
2018-07-20T08:57:12.421Z,99603.00
2018-07-20T08:59:41.765Z,99601.00
2018-07-20T09:02:11.299Z,99603.00
2018-07-20T09:04:40.575Z,99608.00
2018-07-20T09:07:09.792Z,99604.00
2018-07-20T09:09:39.152Z,99606.00
2018-07-20T09:12:08.491Z,99604.00
2018-07-20T09:14:37.680Z,99603.00
2018-07-20T09:17:06.770Z,99602.00
2018-07-20T09:19:36.057Z,99595.00
2018-07-20T09:22:05.201Z,99601.00
2018-07-20T09:24:34.772Z,99604.00
2018-07-20T09:27:04.041Z,99607.00
2018-07-20T09:29:33.157Z,99603.00
2018-07-20T09:32:02.260Z,99607.00
2018-07-20T09:34:31.350Z,99605.00
2018-07-20T09:37:00.549Z,99602.00
2018-07-20T09:39:29.640Z,99605.00
2018-07-20T09:41:58.800Z,99610.00
2018-07-20T09:44:28.006Z,99600.00
2018-07-20T09:46:57.049Z,99603.00
2018-07-20T09:49:26.246Z,99606.00
2018-07-20T09:51:55.337Z,99596.00
2018-07-20T09:54:24.299Z,99607.00
2018-07-20T09:56:53.444Z,99610.00
2018-07-20T09:59:22.696Z,99609.00
2018-07-20T10:01:51.885Z,99609.00
2018-07-20T10:04:21.108Z,99613.00
2018-07-20T10:06:50.252Z,99613.00
2018-07-20T10:09:19.348Z,99606.00
2018-07-20T10:11:48.412Z,99604.00
2018-07-20T10:14:17.550Z,99597.00
2018-07-20T10:16:46.739Z,99603.00
2018-07-20T10:19:16.158Z,99602.00
2018-07-20T10:21:45.422Z,99597.00
2018-07-20T10:24:14.654Z,99597.00
2018-07-20T10:26:43.844Z,99596.00
2018-07-20T10:29:13.116Z,99593.00
2018-07-20T10:31:42.368Z,99593.00
2018-07-20T10:34:12.476Z,99598.00
2018-07-20T10:36:41.705Z,99592.00
2018-07-20T10:39:11.111Z,99591.00
2018-07-20T10:41:40.389Z,99591.00
2018-07-20T10:44:10.485Z,99587.00
2018-07-20T10:46:40.051Z,99585.00
2018-07-20T10:49:09.356Z,99572.00
2018-07-20T10:51:38.538Z,99576.00
2018-07-20T10:54:09.389Z,99577.00
2018-07-20T10:56:42.024Z,99570.00
2018-07-20T10:59:11.527Z,99578.00
2018-07-20T11:01:41.544Z,99573.00
2018-07-20T11:04:10.681Z,99574.00
2018-07-20T11:06:40.464Z,99568.00
2018-07-20T11:09:09.901Z,99564.00
2018-07-20T11:11:39.295Z,99562.00
2018-07-20T11:14:09.773Z,99564.00
2018-07-20T11:16:40.001Z,99562.00
2018-07-20T11:19:09.449Z,99553.00
2018-07-20T11:21:38.820Z,99558.00
2018-07-20T11:24:08.123Z,99555.00
2018-07-20T11:26:37.496Z,99547.00
2018-07-20T11:29:06.838Z,99549.00
2018-07-20T11:31:36.018Z,99546.00
2018-07-20T11:34:05.391Z,99540.00
2018-07-20T11:36:34.610Z,99540.00
2018-07-20T11:39:05.887Z,99531.00
2018-07-20T11:41:35.080Z,99536.00
2018-07-20T11:44:04.489Z,99534.00
2018-07-20T11:46:33.639Z,99532.00
2018-07-20T11:49:02.790Z,99533.00
2018-07-20T11:51:32.096Z,99530.00
2018-07-20T11:54:01.678Z,99529.00
2018-07-20T11:56:30.788Z,99526.00
2018-07-20T11:58:59.876Z,99527.00
2018-07-20T12:01:29.115Z,99523.00
2018-07-20T12:03:58.404Z,99523.00
2018-07-20T12:06:27.742Z,99520.00
2018-07-20T12:08:57.057Z,99516.00
2018-07-20T12:11:26.268Z,99508.00
2018-07-20T12:13:55.426Z,99512.00
2018-07-20T12:16:24.601Z,99504.00
2018-07-20T12:18:53.756Z,99504.00
2018-07-20T12:21:22.986Z,99508.00
2018-07-20T12:23:52.337Z,99502.00
2018-07-20T12:26:21.483Z,99497.00
2018-07-20T12:28:50.713Z,99499.00
2018-07-20T12:31:19.943Z,99494.00
2018-07-20T12:33:49.177Z,99488.00
2018-07-20T12:36:18.314Z,99490.00
2018-07-20T12:41:45.155Z,99480.00
2018-07-20T12:44:14.491Z,99484.00
2018-07-20T12:46:43.778Z,99479.00
2018-07-20T12:49:12.910Z,99475.00
2018-07-20T12:51:42.170Z,99480.00
2018-07-20T12:54:12.130Z,99474.00
2018-07-20T12:56:41.278Z,99469.00
2018-07-20T12:59:10.608Z,99468.00
2018-07-20T13:01:39.928Z,99463.00
2018-07-20T13:04:09.230Z,99465.00
2018-07-20T13:06:38.562Z,99458.00
2018-07-20T13:09:10.896Z,99457.00
2018-07-20T13:11:40.324Z,99462.00
2018-07-20T13:14:10.462Z,99455.00
2018-07-20T13:16:40.172Z,99457.00
2018-07-20T13:19:10.253Z,99450.00
2018-07-20T13:21:39.590Z,99451.00
2018-07-20T13:24:09.695Z,99453.00
2018-07-20T13:26:39.234Z,99447.00
2018-07-20T13:29:08.454Z,99447.00
2018-07-20T13:31:37.752Z,99447.00
2018-07-20T13:34:06.933Z,99439.00
2018-07-20T13:36:36.096Z,99439.00
2018-07-20T13:39:09.687Z,99436.00
2018-07-20T13:41:39.954Z,99427.00
2018-07-20T13:44:09.351Z,99426.00
2018-07-20T13:46:38.589Z,99428.00
2018-07-20T13:49:27.568Z,99423.00
2018-07-20T13:51:56.840Z,99417.00
2018-07-20T13:54:26.788Z,99419.00
2018-07-20T13:56:56.214Z,99415.00
2018-07-20T13:59:25.619Z,99411.00
2018-07-20T14:01:54.965Z,99410.00
2018-07-20T14:04:24.345Z,99412.00
2018-07-20T14:06:53.929Z,99402.00
2018-07-20T14:09:23.210Z,99403.00
2018-07-20T14:11:53.552Z,99398.00
2018-07-20T14:14:24.067Z,99393.00
2018-07-20T14:16:53.779Z,99393.00
2018-07-20T14:19:24.208Z,99390.00
2018-07-20T14:21:54.721Z,99395.00
2018-07-20T14:24:25.212Z,99391.00
2018-07-20T14:26:55.035Z,99388.00
2018-07-20T14:29:24.687Z,99391.00
2018-07-20T14:31:54.220Z,99387.00
2018-07-20T14:34:23.352Z,99379.00
2018-07-20T14:36:52.917Z,99385.00
2018-07-20T14:39:22.239Z,99378.00
2018-07-20T14:41:51.989Z,99376.00
2018-07-20T14:44:21.439Z,99375.00
2018-07-20T14:46:50.549Z,99371.00
2018-07-20T14:49:19.706Z,99372.00
2018-07-20T14:51:48.840Z,99369.00
2018-07-20T14:54:17.971Z,99361.00
2018-07-20T14:56:47.075Z,99359.00
2018-07-20T14:59:16.325Z,99364.00
2018-07-20T15:01:45.523Z,99363.00
2018-07-20T15:04:15.517Z,99355.00
2018-07-20T15:06:44.848Z,99354.00
2018-07-20T15:09:14.061Z,99354.00
2018-07-20T15:11:43.184Z,99358.00
2018-07-20T15:14:12.467Z,99353.00
2018-07-20T15:16:41.782Z,99352.00
2018-07-20T15:19:11.367Z,99349.00
2018-07-20T15:21:40.712Z,99346.00
2018-07-20T15:24:11.145Z,99351.00
2018-07-20T15:26:40.494Z,99346.00
2018-07-20T15:29:09.904Z,99356.00
2018-07-20T15:31:39.744Z,99351.00
2018-07-20T15:34:09.030Z,99354.00
2018-07-20T15:36:38.297Z,99347.00
2018-07-20T15:39:10.732Z,99349.00
2018-07-20T15:41:40.116Z,99351.00
2018-07-20T15:44:09.377Z,99348.00
2018-07-20T15:46:38.814Z,99344.00
2018-07-20T15:49:07.982Z,99351.00
2018-07-20T15:53:35.203Z,99350.00
2018-07-20T15:54:06.648Z,99361.00
2018-07-20T15:56:36.652Z,99359.00
2018-07-20T15:59:07.229Z,99357.00
2018-07-20T16:01:36.486Z,99360.00
2018-07-20T16:04:05.558Z,99362.00
2018-07-20T16:06:34.723Z,99362.00
2018-07-20T16:09:04.302Z,99368.00
2018-07-20T16:11:33.466Z,99369.00
2018-07-20T16:14:02.556Z,99378.00
2018-07-20T16:16:32.016Z,99382.00
2018-07-20T16:19:01.079Z,99389.00
2018-07-20T16:21:30.361Z,99389.00
2018-07-20T16:23:59.441Z,99398.00
2018-07-20T16:26:28.599Z,99404.00
2018-07-20T16:28:57.831Z,99400.00
2018-07-20T16:31:27.120Z,99396.00
2018-07-20T16:33:56.659Z,99403.00
2018-07-20T16:36:31.834Z,99404.00
2018-07-20T16:39:01.177Z,99406.00
2018-07-20T16:41:31.059Z,99407.00
2018-07-20T16:44:00.407Z,99407.00
2018-07-20T16:46:29.619Z,99403.00
2018-07-20T16:48:58.774Z,99406.00
2018-07-20T16:51:28.067Z,99403.00
2018-07-20T16:53:57.419Z,99402.00
2018-07-20T16:56:26.552Z,99396.00
2018-07-20T16:58:55.684Z,99402.00
2018-07-20T17:01:25.041Z,99394.00
2018-07-20T17:03:54.807Z,99388.00
2018-07-20T17:06:23.937Z,99376.00
2018-07-20T17:08:53.230Z,99369.00
2018-07-20T17:11:22.404Z,99361.00
2018-07-20T17:13:51.665Z,99353.00
2018-07-20T17:16:20.807Z,99345.00
2018-07-20T17:18:49.907Z,99347.00
2018-07-20T17:21:19.321Z,99348.00
2018-07-20T17:23:48.935Z,99343.00
2018-07-20T17:26:18.529Z,99346.00
2018-07-20T17:28:48.677Z,99346.00
2018-07-20T17:31:17.958Z,99347.00
2018-07-20T17:33:47.444Z,99344.00
2018-07-20T17:36:17.362Z,99347.00
2018-07-20T17:38:46.936Z,99351.00
2018-07-20T17:41:16.871Z,99349.00
2018-07-20T17:43:46.291Z,99349.00
2018-07-20T17:46:15.582Z,99343.00
2018-07-20T17:48:44.757Z,99339.00
2018-07-20T17:51:14.572Z,99336.00
2018-07-20T17:53:43.803Z,99339.00
2018-07-20T17:56:13.093Z,99341.00
2018-07-20T17:58:42.364Z,99338.00
2018-07-20T18:01:11.825Z,99343.00
2018-07-20T18:03:41.389Z,99347.00
2018-07-20T18:06:10.765Z,99342.00
2018-07-20T18:08:42.056Z,99341.00
2018-07-20T18:11:11.724Z,99346.00
2018-07-20T18:13:41.066Z,99342.00
2018-07-20T18:16:11.862Z,99345.00
2018-07-20T18:18:41.199Z,99349.00
2018-07-20T18:21:10.770Z,99348.00
2018-07-20T18:23:39.989Z,99348.00
2018-07-20T18:26:09.729Z,99350.00
2018-07-20T18:28:40.014Z,99347.00
2018-07-20T18:31:10.164Z,99345.00
2018-07-20T18:33:39.524Z,99336.00
2018-07-20T18:36:08.858Z,99337.00
2018-07-20T18:38:38.089Z,99328.00
2018-07-20T18:41:07.901Z,99334.00
2018-07-20T18:43:37.220Z,99331.00
2018-07-20T18:46:07.357Z,99337.00
2018-07-20T18:48:37.612Z,99340.00
2018-07-20T18:51:07.634Z,99336.00
2018-07-20T18:53:37.680Z,99341.00
2018-07-20T18:56:07.029Z,99338.00
2018-07-20T18:58:36.076Z,99340.00
2018-07-20T19:01:05.272Z,99333.00
2018-07-20T19:03:34.485Z,99337.00
2018-07-20T19:06:03.706Z,99342.00
2018-07-20T19:08:32.912Z,99343.00
2018-07-20T19:11:02.070Z,99342.00
2018-07-20T19:13:31.205Z,99341.00
2018-07-20T19:16:00.300Z,99346.00
2018-07-20T19:18:29.393Z,99344.00
2018-07-20T19:20:58.422Z,99353.00
2018-07-20T19:23:27.573Z,99359.00
2018-07-20T19:25:56.629Z,99360.00
2018-07-20T19:28:25.710Z,99354.00
2018-07-20T19:30:54.824Z,99359.00
2018-07-20T19:33:23.984Z,99366.00
2018-07-20T19:35:53.151Z,99362.00
2018-07-20T19:38:22.281Z,99361.00
2018-07-20T19:40:51.430Z,99364.00
2018-07-20T19:43:20.548Z,99368.00
2018-07-20T19:45:49.633Z,99373.00
2018-07-20T19:48:18.767Z,99375.00
2018-07-20T19:50:47.806Z,99378.00
2018-07-20T19:53:17.015Z,99378.00
2018-07-20T19:55:46.230Z,99382.00
2018-07-20T19:58:15.569Z,99369.00
2018-07-20T20:00:44.789Z,99368.00
2018-07-20T20:03:13.957Z,99374.00
2018-07-20T20:05:43.793Z,99374.00
2018-07-20T20:08:13.012Z,99369.00
2018-07-20T20:10:42.307Z,99369.00
2018-07-20T20:13:11.737Z,99372.00
2018-07-20T20:15:41.015Z,99374.00
2018-07-20T20:18:10.286Z,99368.00
2018-07-20T20:20:39.764Z,99364.00
2018-07-20T20:23:09.089Z,99369.00
2018-07-20T20:25:38.309Z,99362.00
2018-07-20T20:28:08.281Z,99365.00
2018-07-20T20:30:37.356Z,99362.00
2018-07-20T20:33:06.429Z,99362.00
2018-07-20T20:35:35.586Z,99360.00
2018-07-20T20:38:04.704Z,99363.00
2018-07-20T20:40:34.067Z,99359.00
2018-07-20T20:43:03.147Z,99363.00
2018-07-20T20:45:32.209Z,99359.00
2018-07-20T20:48:01.290Z,99357.00
2018-07-20T20:50:30.348Z,99356.00
2018-07-20T20:52:59.647Z,99355.00
2018-07-20T20:55:28.755Z,99354.00
2018-07-20T20:57:57.793Z,99356.00
2018-07-20T21:00:26.912Z,99357.00
2018-07-20T21:02:55.989Z,99353.00
2018-07-20T21:05:25.215Z,99350.00
2018-07-20T21:07:54.287Z,99351.00
2018-07-20T21:10:23.384Z,99351.00
2018-07-20T21:12:52.544Z,99348.00
2018-07-20T21:15:21.802Z,99347.00
2018-07-20T21:17:51.142Z,99342.00
2018-07-20T21:20:21.096Z,99348.00
2018-07-20T21:22:50.320Z,99344.00
2018-07-20T21:25:19.440Z,99342.00
2018-07-20T21:27:48.668Z,99342.00
2018-07-20T21:30:17.760Z,99343.00
2018-07-20T21:32:46.840Z,99337.00
2018-07-20T21:35:16.033Z,99342.00
2018-07-20T21:37:45.360Z,99337.00
2018-07-20T21:40:14.652Z,99340.00
2018-07-20T21:42:43.951Z,99340.00
2018-07-20T21:45:13.284Z,99352.00
2018-07-20T21:47:42.947Z,99354.00
2018-07-20T21:50:12.637Z,99356.00
2018-07-20T21:52:42.766Z,99354.00
2018-07-20T21:55:12.051Z,99358.00
2018-07-20T21:57:41.174Z,99357.00
2018-07-20T22:00:17.459Z,99351.00
2018-07-20T22:02:47.116Z,99344.00
2018-07-20T22:05:18.049Z,99342.00
2018-07-20T22:07:48.275Z,99346.00
2018-07-20T22:10:17.512Z,99353.00
2018-07-20T22:12:46.604Z,99350.00
2018-07-20T22:15:15.792Z,99353.00
2018-07-20T22:17:44.816Z,99358.00
2018-07-20T22:20:13.900Z,99359.00
2018-07-20T22:22:42.941Z,99361.00
2018-07-20T22:25:13.010Z,99360.00
2018-07-20T22:27:42.067Z,99354.00
2018-07-20T22:30:11.581Z,99355.00
2018-07-20T22:32:40.412Z,99352.00
2018-07-20T22:35:09.724Z,99359.00
2018-07-20T22:37:38.788Z,99357.00
2018-07-20T22:40:07.862Z,99355.00
2018-07-20T22:42:36.920Z,99354.00
2018-07-20T22:45:05.951Z,99356.00
2018-07-20T22:47:35.785Z,99349.00
2018-07-20T22:50:06.400Z,99348.00
2018-07-20T22:52:35.950Z,99345.00
2018-07-20T22:55:06.030Z,99349.00
2018-07-20T22:57:35.809Z,99344.00
2018-07-20T23:00:06.116Z,99342.00
2018-07-20T23:02:36.210Z,99343.00
2018-07-20T23:05:06.409Z,99340.00
2018-07-20T23:07:36.345Z,99332.00
2018-07-20T23:10:06.473Z,99336.00
2018-07-20T23:12:35.537Z,99335.00
2018-07-20T23:15:04.940Z,99341.00
2018-07-20T23:17:34.336Z,99337.00
2018-07-20T23:20:03.794Z,99342.00
2018-07-20T23:22:33.000Z,99343.00
2018-07-20T23:25:02.049Z,99345.00
2018-07-20T23:27:31.165Z,99344.00
2018-07-20T23:30:00.223Z,99336.00
2018-07-20T23:32:29.315Z,99332.00
2018-07-20T23:34:58.440Z,99333.00
2018-07-20T23:37:27.515Z,99334.00
2018-07-20T23:39:56.575Z,99325.00
2018-07-20T23:42:25.665Z,99323.00
2018-07-20T23:44:54.748Z,99323.00
2018-07-20T23:47:23.822Z,99313.00
2018-07-20T23:49:53.013Z,99309.00
2018-07-20T23:52:22.067Z,99311.00
2018-07-20T23:54:51.552Z,99307.00
2018-07-20T23:57:20.643Z,99308.00
2018-07-20T23:59:49.799Z,99310.00
